createdAt,value
2019-01-14T00:02:04.982Z,11.40
2019-01-14T00:04:33.655Z,15.57
2019-01-14T00:07:02.198Z,7.17
2019-01-14T00:09:31.449Z,13.43
2019-01-14T00:12:00.167Z,10.30
2019-01-14T00:14:28.765Z,24.07
2019-01-14T00:16:57.366Z,13.53
2019-01-14T00:19:26.116Z,17.70
2019-01-14T00:21:54.640Z,19.50
2019-01-14T00:24:23.354Z,12.37
2019-01-14T00:26:52.367Z,17.63
2019-01-14T00:29:21.365Z,12.97
2019-01-14T00:31:50.050Z,20.30
2019-01-14T00:34:19.087Z,15.70
2019-01-14T00:36:48.038Z,15.43
2019-01-14T00:39:16.678Z,13.53
2019-01-14T00:41:45.218Z,18.83
2019-01-14T00:44:13.805Z,20.93
2019-01-14T00:46:42.343Z,21.33
2019-01-14T00:49:10.938Z,20.63
2019-01-14T00:51:39.435Z,20.47
2019-01-14T00:54:07.981Z,15.80
2019-01-14T00:56:36.866Z,15.83
2019-01-14T00:59:05.914Z,15.83
2019-01-14T01:01:34.484Z,19.27
2019-01-14T01:04:03.314Z,21.73
2019-01-14T01:06:31.899Z,17.07
2019-01-14T01:09:00.873Z,19.90
2019-01-14T01:11:29.454Z,19.93
2019-01-14T01:13:58.007Z,19.83
2019-01-14T01:16:26.511Z,25.37
2019-01-14T01:18:55.148Z,23.83
2019-01-14T01:21:24.058Z,23.30
2019-01-14T01:23:52.654Z,25.10
2019-01-14T01:26:21.175Z,20.80
2019-01-14T01:28:50.191Z,20.70
2019-01-14T01:31:18.702Z,23.57
2019-01-14T01:33:47.292Z,23.70
2019-01-14T01:36:15.811Z,13.67
2019-01-14T01:38:44.377Z,26.93
2019-01-14T01:41:12.880Z,29.10
2019-01-14T01:43:41.457Z,21.00
2019-01-14T01:46:09.979Z,19.73
2019-01-14T01:48:38.610Z,31.20
2019-01-14T01:51:07.108Z,19.57
2019-01-14T01:53:35.715Z,36.53
2019-01-14T01:56:04.485Z,22.30
2019-01-14T01:58:33.081Z,23.17
2019-01-14T02:01:01.938Z,38.90
2019-01-14T02:03:30.522Z,19.53
2019-01-14T02:05:59.028Z,28.87
2019-01-14T02:08:27.594Z,28.80
2019-01-14T02:10:56.116Z,19.60
2019-01-14T02:13:24.688Z,22.53
2019-01-14T02:15:53.479Z,25.23
2019-01-14T02:18:22.033Z,22.93
2019-01-14T02:20:50.533Z,25.13
2019-01-14T02:23:19.138Z,28.97
2019-01-14T02:25:47.943Z,30.50
2019-01-14T02:28:16.538Z,21.63
2019-01-14T02:30:45.063Z,19.10
2019-01-14T02:33:13.660Z,21.13
2019-01-14T02:35:42.582Z,27.10
2019-01-14T02:38:11.213Z,25.63
2019-01-14T02:40:39.719Z,27.20
2019-01-14T02:43:08.266Z,17.73
2019-01-14T02:45:36.797Z,23.87
2019-01-14T02:48:05.383Z,23.73
2019-01-14T02:50:33.917Z,29.83
2019-01-14T02:53:02.528Z,29.57
2019-01-14T02:55:31.082Z,24.53
2019-01-14T02:57:59.633Z,25.23
2019-01-14T03:00:28.444Z,30.20
2019-01-14T03:02:57.282Z,41.60
2019-01-14T03:05:26.203Z,32.43
2019-01-14T03:07:54.772Z,21.93
2019-01-14T03:10:23.674Z,24.60
2019-01-14T03:12:52.345Z,16.93
2019-01-14T03:15:21.039Z,24.33
2019-01-14T03:17:49.617Z,29.43
2019-01-14T03:20:18.250Z,28.10
2019-01-14T03:22:47.044Z,19.33
2019-01-14T03:25:16.029Z,29.10
2019-01-14T03:27:44.961Z,33.20
2019-01-14T03:30:15.852Z,24.53
2019-01-14T03:32:44.691Z,24.27
2019-01-14T03:35:13.362Z,20.90
2019-01-14T03:37:41.926Z,29.53
2019-01-14T03:40:13.288Z,31.73
2019-01-14T03:42:42.228Z,24.33
2019-01-14T03:45:12.289Z,36.27
2019-01-14T03:47:41.342Z,25.23
2019-01-14T03:50:16.374Z,26.30
2019-01-14T03:52:45.018Z,22.10
2019-01-14T03:55:13.867Z,21.37
2019-01-14T03:57:43.449Z,24.13
2019-01-14T04:00:14.437Z,20.60
2019-01-14T04:02:43.079Z,16.47
2019-01-14T04:05:11.712Z,28.50
2019-01-14T04:07:40.325Z,28.43
2019-01-14T04:10:14.835Z,30.53
2019-01-14T04:12:43.562Z,26.47
2019-01-14T04:15:15.305Z,23.40
2019-01-14T04:17:44.991Z,25.90
2019-01-14T04:20:19.589Z,14.83
2019-01-14T04:22:48.451Z,20.30
2019-01-14T04:25:17.324Z,11.77
2019-01-14T04:27:45.959Z,18.00
2019-01-14T04:30:22.334Z,21.07
2019-01-14T04:32:51.455Z,16.57
2019-01-14T04:35:20.417Z,13.63
2019-01-14T04:37:49.070Z,15.70
2019-01-14T04:40:17.644Z,18.23
2019-01-14T04:42:46.254Z,11.97
2019-01-14T04:45:15.969Z,14.50
2019-01-14T04:47:44.564Z,16.00
2019-01-14T04:50:16.057Z,13.30
2019-01-14T04:52:45.055Z,10.60
2019-01-14T04:55:13.679Z,9.77
2019-01-14T05:00:06.820Z,15.43
2019-01-14T05:02:35.450Z,24.67
2019-01-14T05:05:06.493Z,16.43
2019-01-14T05:07:35.082Z,14.33
2019-01-14T05:10:08.892Z,9.67
2019-01-14T05:12:37.470Z,20.50
2019-01-14T05:15:09.416Z,20.27
2019-01-14T05:17:38.387Z,17.60
2019-01-14T05:20:10.131Z,14.37
2019-01-14T05:22:39.135Z,21.57
2019-01-14T05:25:08.673Z,17.27
2019-01-14T05:27:37.255Z,12.03
2019-01-14T05:30:11.829Z,19.53
2019-01-14T05:32:40.417Z,14.87
2019-01-14T05:35:09.970Z,14.87
2019-01-14T05:37:38.532Z,19.20
2019-01-14T05:40:19.565Z,15.47
2019-01-14T05:42:48.088Z,12.13
2019-01-14T05:45:16.773Z,10.30
2019-01-14T05:47:45.321Z,20.33
2019-01-14T05:50:15.383Z,10.93
2019-01-14T05:52:43.990Z,14.80
2019-01-14T05:55:13.746Z,13.97
2019-01-14T05:57:42.298Z,12.30
2019-01-14T06:00:19.779Z,10.87
2019-01-14T06:02:48.822Z,23.30
2019-01-14T06:05:17.337Z,15.70
2019-01-14T06:07:45.919Z,18.13
2019-01-14T06:10:14.524Z,11.97
2019-01-14T06:12:43.129Z,17.57
2019-01-14T06:15:14.280Z,19.20
2019-01-14T06:17:42.929Z,9.00
2019-01-14T06:20:18.101Z,19.97
2019-01-14T06:22:46.730Z,12.67
2019-01-14T06:25:15.714Z,24.50
2019-01-14T06:27:44.349Z,14.90
2019-01-14T06:30:24.968Z,25.97
2019-01-14T06:32:54.945Z,12.97
2019-01-14T06:35:23.836Z,12.17
2019-01-14T06:37:52.812Z,10.80
2019-01-14T06:40:22.065Z,15.20
2019-01-14T06:42:50.659Z,15.63
2019-01-14T06:45:19.241Z,18.07
2019-01-14T06:47:48.276Z,17.73
2019-01-14T06:50:19.458Z,17.33
2019-01-14T06:52:48.104Z,8.73
2019-01-14T06:55:18.181Z,15.47
2019-01-14T06:57:46.881Z,11.50
2019-01-14T07:00:20.842Z,13.33
2019-01-14T07:02:49.543Z,12.27
2019-01-14T07:05:18.385Z,9.37
2019-01-14T07:07:47.007Z,12.70
2019-01-14T07:10:24.281Z,10.90
2019-01-14T07:12:52.916Z,9.40
2019-01-14T07:15:21.851Z,8.97
2019-01-14T07:17:50.457Z,11.50
2019-01-14T07:20:19.844Z,9.00
2019-01-14T07:22:48.848Z,10.87
2019-01-14T07:25:17.532Z,10.00
2019-01-14T07:27:46.199Z,13.10
2019-01-14T07:30:19.730Z,6.63
2019-01-14T07:32:48.496Z,12.83
2019-01-14T07:35:17.351Z,4.97
2019-01-14T07:37:46.361Z,13.27
2019-01-14T07:40:17.119Z,15.13
2019-01-14T07:42:45.689Z,12.77
2019-01-14T07:45:16.326Z,5.70
2019-01-14T07:47:45.024Z,9.70
2019-01-14T07:50:24.141Z,6.53
2019-01-14T07:55:37.223Z,13.43
2019-01-14T07:58:09.068Z,18.37
2019-01-14T08:00:39.656Z,11.20
2019-01-14T08:03:08.212Z,12.60
2019-01-14T08:05:37.166Z,16.03
2019-01-14T08:08:05.724Z,22.43
2019-01-14T08:10:34.654Z,7.00
2019-01-14T08:13:03.303Z,7.83
2019-01-14T08:15:31.887Z,8.70
2019-01-14T08:18:00.469Z,10.83
2019-01-14T08:20:29.015Z,17.50
2019-01-14T08:22:57.630Z,21.20
2019-01-14T08:25:26.540Z,12.53
2019-01-14T08:27:55.524Z,17.20
2019-01-14T08:30:24.924Z,10.23
2019-01-14T08:32:53.771Z,15.50
2019-01-14T08:35:22.670Z,18.63
2019-01-14T08:37:51.409Z,14.73
2019-01-14T08:40:21.295Z,13.97
2019-01-14T08:42:50.183Z,12.90
2019-01-14T08:45:19.060Z,12.17
2019-01-14T08:47:47.689Z,17.10
2019-01-14T08:50:18.089Z,12.30
2019-01-14T08:52:46.772Z,11.93
2019-01-14T08:55:15.384Z,9.60
2019-01-14T08:57:43.967Z,14.53
2019-01-14T09:00:15.811Z,11.37
2019-01-14T09:02:44.521Z,8.40
2019-01-14T09:05:13.217Z,13.30
2019-01-14T09:07:41.931Z,11.17
2019-01-14T09:10:16.337Z,10.73
2019-01-14T09:12:45.079Z,9.90
2019-01-14T09:15:16.885Z,26.57
2019-01-14T09:17:45.591Z,19.43
2019-01-14T09:20:16.662Z,10.07
2019-01-14T09:22:45.341Z,13.93
2019-01-14T09:25:13.928Z,8.70
2019-01-14T09:27:42.638Z,7.83
2019-01-14T09:30:17.217Z,6.90
2019-01-14T09:32:46.029Z,8.80
2019-01-14T09:35:14.583Z,7.97
2019-01-14T09:37:43.233Z,8.33
2019-01-14T09:40:15.889Z,15.53
2019-01-14T09:42:44.554Z,12.73
2019-01-14T09:45:13.377Z,15.10
2019-01-14T09:47:42.164Z,15.40
2019-01-14T09:50:13.278Z,19.00
2019-01-14T09:52:42.096Z,6.13
2019-01-14T09:55:16.028Z,12.77
2019-01-14T09:57:46.567Z,11.57
2019-01-14T10:00:15.355Z,17.53
2019-01-14T10:02:44.502Z,11.07
2019-01-14T10:05:16.991Z,12.93
2019-01-14T10:07:46.401Z,10.23
2019-01-14T10:10:16.892Z,8.87
2019-01-14T10:12:45.642Z,15.20
2019-01-14T10:15:19.506Z,11.07
2019-01-14T10:17:50.300Z,14.87
2019-01-14T10:20:18.944Z,9.33
2019-01-14T10:22:47.628Z,12.43
2019-01-14T10:25:16.235Z,6.83
2019-01-14T10:27:44.840Z,8.83
2019-01-14T10:30:18.484Z,10.90
2019-01-14T10:32:47.717Z,17.50
2019-01-14T10:35:16.355Z,12.77
2019-01-14T10:37:45.057Z,8.20
2019-01-14T10:40:17.439Z,11.97
2019-01-14T10:42:46.147Z,8.90
2019-01-14T10:45:20.260Z,6.73
2019-01-14T10:47:49.162Z,6.67
2019-01-14T10:50:18.099Z,5.80
2019-01-14T10:52:46.809Z,12.80
2019-01-14T10:55:16.114Z,13.27
2019-01-14T10:57:45.700Z,6.43
2019-01-14T11:00:19.705Z,7.43
2019-01-14T11:02:50.591Z,6.20
2019-01-14T11:05:23.500Z,5.17
2019-01-14T11:07:52.508Z,4.50
2019-01-14T11:10:21.443Z,6.63
2019-01-14T11:12:50.692Z,7.50
2019-01-14T11:15:21.649Z,6.67
2019-01-14T11:17:50.517Z,6.53
2019-01-14T11:20:24.971Z,12.00
2019-01-14T11:22:53.865Z,5.87
2019-01-14T11:25:22.493Z,5.40
2019-01-14T11:27:51.935Z,9.03
2019-01-14T11:30:25.832Z,8.83
2019-01-14T11:32:54.495Z,7.50
2019-01-14T11:35:23.199Z,6.77
2019-01-14T11:37:52.028Z,6.03
2019-01-14T11:40:27.233Z,5.20
2019-01-14T11:42:55.975Z,4.93
2019-01-14T11:45:24.474Z,8.30
2019-01-14T11:47:53.230Z,9.00
2019-01-14T11:50:22.430Z,4.33
2019-01-14T11:52:51.259Z,3.97
2019-01-14T11:55:20.680Z,3.20
2019-01-14T11:57:51.702Z,5.60
2019-01-14T12:00:23.289Z,5.57
2019-01-14T12:02:52.520Z,5.70
2019-01-14T12:05:22.185Z,3.97
2019-01-14T12:07:51.292Z,3.60
2019-01-14T12:10:20.103Z,5.33
2019-01-14T12:12:48.815Z,4.17
2019-01-14T12:15:20.524Z,3.73
2019-01-14T12:17:49.713Z,11.10
2019-01-14T12:20:18.539Z,6.57
2019-01-14T12:22:48.566Z,6.03
2019-01-14T12:25:17.150Z,4.60
2019-01-14T12:27:45.888Z,4.83
2019-01-14T12:30:25.493Z,3.70
2019-01-14T12:32:54.253Z,9.93
2019-01-14T12:35:22.832Z,4.67
2019-01-14T12:37:51.675Z,3.93
2019-01-14T12:40:20.544Z,2.70
2019-01-14T12:42:49.337Z,3.33
2019-01-14T12:45:19.760Z,3.93
2019-01-14T12:47:49.031Z,4.43
2019-01-14T12:50:23.375Z,3.50
2019-01-14T12:52:53.645Z,2.97
2019-01-14T12:55:22.544Z,3.50
2019-01-14T12:57:51.413Z,6.43
2019-01-14T13:00:43.958Z,8.73
2019-01-14T13:03:13.106Z,5.47
2019-01-14T13:05:41.752Z,6.70
2019-01-14T13:08:12.232Z,2.80
2019-01-14T13:10:42.684Z,4.33
2019-01-14T13:13:11.413Z,3.87
2019-01-14T13:15:41.350Z,6.53
2019-01-14T13:18:14.458Z,6.23
2019-01-14T13:20:43.403Z,4.90
2019-01-14T13:23:12.078Z,4.53
2019-01-14T13:25:41.181Z,4.33
2019-01-14T13:28:10.872Z,2.30
2019-01-14T13:30:44.353Z,5.67
2019-01-14T13:33:13.474Z,12.90
2019-01-14T13:35:42.357Z,9.00
2019-01-14T13:38:11.928Z,6.30
2019-01-14T13:40:41.759Z,5.00
2019-01-14T13:43:11.078Z,7.50
2019-01-14T13:45:39.931Z,4.17
2019-01-14T13:48:11.423Z,3.97
2019-01-14T13:50:42.237Z,4.13
2019-01-14T13:53:11.172Z,9.30
2019-01-14T13:55:39.838Z,3.30
2019-01-14T13:58:08.601Z,5.47
2019-01-14T14:00:38.033Z,6.07
2019-01-14T14:03:07.384Z,8.33
2019-01-14T14:05:36.065Z,6.23
2019-01-14T14:08:05.157Z,5.37
2019-01-14T14:10:34.143Z,7.23
2019-01-14T14:13:04.217Z,7.57
2019-01-14T14:15:33.027Z,5.50
2019-01-14T14:18:02.234Z,5.23
2019-01-14T14:20:30.815Z,7.80
2019-01-14T14:22:59.763Z,6.30
2019-01-14T14:25:28.502Z,5.13
2019-01-14T14:27:57.550Z,4.27
2019-01-14T14:30:32.631Z,7.43
2019-01-14T14:33:01.800Z,4.00
2019-01-14T14:35:31.025Z,3.67
2019-01-14T14:38:01.638Z,10.70
2019-01-14T14:40:30.519Z,2.83
2019-01-14T14:42:59.356Z,4.27
2019-01-14T14:45:28.553Z,7.60
2019-01-14T14:47:57.963Z,3.23
2019-01-14T14:50:26.843Z,4.63
2019-01-14T14:52:59.438Z,3.70
2019-01-14T14:55:28.193Z,4.87
2019-01-14T14:57:56.862Z,7.80
2019-01-14T15:00:25.841Z,5.83
2019-01-14T15:02:54.606Z,6.57
2019-01-14T15:05:23.396Z,5.53
2019-01-14T15:07:52.050Z,6.10
2019-01-14T15:10:22.799Z,7.80
2019-01-14T15:12:51.635Z,2.80
2019-01-14T15:15:22.408Z,3.40
2019-01-14T15:17:52.406Z,2.73
2019-01-14T15:20:22.747Z,9.20
2019-01-14T15:22:53.143Z,4.17
2019-01-14T15:25:22.129Z,6.40
2019-01-14T15:27:51.136Z,5.97
2019-01-14T15:30:23.121Z,7.73
2019-01-14T15:32:52.174Z,4.97
2019-01-14T15:35:21.533Z,5.07
2019-01-14T15:37:50.610Z,6.03
2019-01-14T15:40:21.194Z,2.63
2019-01-14T15:42:52.958Z,5.60
2019-01-14T15:45:24.622Z,5.77
2019-01-14T15:47:55.503Z,4.53
2019-01-14T15:50:24.386Z,5.70
2019-01-14T15:52:53.495Z,6.20
2019-01-14T15:55:25.800Z,7.23
2019-01-14T15:57:56.737Z,4.90
2019-01-14T16:00:27.442Z,4.30
2019-01-14T16:02:57.712Z,5.40
2019-01-14T16:05:27.184Z,8.20
2019-01-14T16:07:56.832Z,7.93
2019-01-14T16:10:26.583Z,3.13
2019-01-14T16:12:55.376Z,5.57
2019-01-14T16:15:27.047Z,5.20
2019-01-14T16:17:56.097Z,3.50
2019-01-14T16:20:25.791Z,7.20
2019-01-14T16:22:55.316Z,6.57
2019-01-14T16:25:26.448Z,5.97
2019-01-14T16:27:55.546Z,3.50
2019-01-14T16:30:25.108Z,7.90
2019-01-14T16:32:54.300Z,5.33
2019-01-14T16:35:24.079Z,8.30
2019-01-14T16:37:52.908Z,5.13
2019-01-14T16:40:22.216Z,10.53
2019-01-14T16:42:51.869Z,5.00
2019-01-14T16:45:22.934Z,3.60
2019-01-14T16:47:51.959Z,8.40
2019-01-14T16:50:20.933Z,1.67
2019-01-14T16:52:50.399Z,3.70
2019-01-14T16:55:20.790Z,9.67
2019-01-14T16:57:50.635Z,4.77
2019-01-14T17:00:19.606Z,3.73
2019-01-14T17:02:51.370Z,8.60
2019-01-14T17:05:20.062Z,4.17
2019-01-14T17:07:48.848Z,3.40
2019-01-14T17:10:17.483Z,3.17
2019-01-14T17:12:46.180Z,3.53
2019-01-14T17:15:15.431Z,3.17
2019-01-14T17:17:44.294Z,2.83
2019-01-14T17:20:20.037Z,5.83
2019-01-14T17:22:48.806Z,4.93
2019-01-14T17:25:17.511Z,4.23
2019-01-14T17:27:46.913Z,3.63
2019-01-14T17:30:16.730Z,3.87
2019-01-14T17:32:46.449Z,2.30
2019-01-14T17:35:15.691Z,4.43
2019-01-14T17:37:45.446Z,3.73
2019-01-14T17:40:17.091Z,5.47
2019-01-14T17:42:45.897Z,5.03
2019-01-14T17:45:15.756Z,8.07
2019-01-14T17:47:45.087Z,6.00
2019-01-14T17:50:16.533Z,7.70
2019-01-14T17:52:45.436Z,10.77
2019-01-14T17:55:15.444Z,10.20
2019-01-14T17:57:44.307Z,6.27
2019-01-14T18:00:16.331Z,8.93
2019-01-14T18:02:46.224Z,3.93
2019-01-14T18:05:14.956Z,7.00
2019-01-14T18:07:44.116Z,11.10
2019-01-14T18:10:15.472Z,10.10
2019-01-14T18:12:44.862Z,8.73
2019-01-14T18:15:17.903Z,7.03
2019-01-14T18:17:47.142Z,6.13
2019-01-14T18:20:18.053Z,4.50
2019-01-14T18:22:46.973Z,12.40
2019-01-14T18:25:16.639Z,5.00
2019-01-14T18:27:45.507Z,6.87
2019-01-14T18:30:18.759Z,6.80
2019-01-14T18:32:47.728Z,3.60
2019-01-14T18:35:17.603Z,13.73
2019-01-14T18:37:46.702Z,9.90
2019-01-14T18:40:18.814Z,10.30
2019-01-14T18:42:48.818Z,11.30
2019-01-14T18:45:18.789Z,6.30
2019-01-14T18:47:48.677Z,8.63
2019-01-14T18:50:20.249Z,6.53
2019-01-14T18:52:49.270Z,12.70
2019-01-14T18:55:18.179Z,12.53
2019-01-14T18:57:47.280Z,4.50
2019-01-14T19:00:20.919Z,4.53
2019-01-14T19:02:51.103Z,5.50
2019-01-14T19:05:21.314Z,10.60
2019-01-14T19:07:51.031Z,14.37
2019-01-14T19:10:20.926Z,4.70
2019-01-14T19:12:51.116Z,15.10
2019-01-14T19:15:21.544Z,10.53
2019-01-14T19:17:52.765Z,9.30
2019-01-14T19:20:26.479Z,9.30
2019-01-14T19:22:56.014Z,10.93
2019-01-14T19:25:28.144Z,19.43
2019-01-14T19:27:59.389Z,13.27
2019-01-14T19:30:29.890Z,9.27
2019-01-14T19:33:01.842Z,17.87
2019-01-14T19:35:33.648Z,11.40
2019-01-14T19:38:03.262Z,7.87
2019-01-14T19:40:33.290Z,15.93
2019-01-14T19:43:02.945Z,14.27
2019-01-14T19:45:33.167Z,11.80
2019-01-14T19:48:05.577Z,14.20
2019-01-14T19:50:36.584Z,11.47
2019-01-14T19:53:07.254Z,11.50
2019-01-14T19:55:36.499Z,11.93
2019-01-14T19:58:05.978Z,9.73
2019-01-14T20:08:32.864Z,19.33
2019-01-14T20:11:08.998Z,14.17
2019-01-14T20:13:32.202Z,19.93
2019-01-14T20:16:00.908Z,7.70
2019-01-14T20:18:29.483Z,11.30
2019-01-14T20:20:58.113Z,8.63
2019-01-14T20:23:26.663Z,19.47
2019-01-14T20:25:55.379Z,24.67
2019-01-14T20:28:23.973Z,12.77
2019-01-14T20:30:54.742Z,11.10
2019-01-14T20:33:23.354Z,12.90
2019-01-14T20:35:52.006Z,11.63
2019-01-14T20:38:20.597Z,13.57
2019-01-14T20:40:49.171Z,18.00
2019-01-14T20:43:17.813Z,12.10
2019-01-14T20:45:46.399Z,15.63
2019-01-14T20:48:15.020Z,24.60
2019-01-14T20:50:43.597Z,10.83
2019-01-14T20:53:13.826Z,8.73
2019-01-14T20:55:42.791Z,9.17
2019-01-14T20:58:11.447Z,24.60
2019-01-14T21:00:40.484Z,12.63
2019-01-14T21:03:10.005Z,13.13
2019-01-14T21:05:38.702Z,18.90
2019-01-14T21:08:07.336Z,11.00
2019-01-14T21:10:35.917Z,24.50
2019-01-14T21:13:04.729Z,14.33
2019-01-14T21:15:33.361Z,16.33
2019-01-14T21:18:01.988Z,17.93
2019-01-14T21:20:30.610Z,6.53
2019-01-14T21:22:59.221Z,15.00
2019-01-14T21:25:27.766Z,8.80
2019-01-14T21:27:56.452Z,18.23
2019-01-14T21:30:25.871Z,16.63
2019-01-14T21:32:54.542Z,10.80
2019-01-14T21:35:23.112Z,16.67
2019-01-14T21:37:52.171Z,13.47
2019-01-14T21:40:20.736Z,13.40
2019-01-14T21:42:49.356Z,7.00
2019-01-14T21:45:18.003Z,9.60
2019-01-14T21:47:46.650Z,12.17
2019-01-14T21:50:19.925Z,13.23
2019-01-14T21:52:48.635Z,13.63
2019-01-14T21:55:22.210Z,14.63
2019-01-14T21:57:50.826Z,9.27
2019-01-14T22:00:21.329Z,6.73
2019-01-14T22:02:49.964Z,16.50
2019-01-14T22:05:18.518Z,10.03
2019-01-14T22:07:47.181Z,14.10
2019-01-14T22:10:18.199Z,7.50
2019-01-14T22:12:46.885Z,21.73
2019-01-14T22:15:15.873Z,8.43
2019-01-14T22:17:44.472Z,10.17
2019-01-14T22:20:19.385Z,12.33
2019-01-14T22:22:48.165Z,10.50
2019-01-14T22:25:16.830Z,17.57
2019-01-14T22:27:45.464Z,10.67
2019-01-14T22:30:20.202Z,17.00
2019-01-14T22:32:48.901Z,12.00
2019-01-14T22:35:17.525Z,12.37
2019-01-14T22:37:46.193Z,16.43
2019-01-14T22:40:15.440Z,12.70
2019-01-14T22:42:44.264Z,11.80
2019-01-14T22:45:13.610Z,16.83
2019-01-14T22:47:42.227Z,8.47
2019-01-14T22:50:16.404Z,10.50
2019-01-14T22:52:45.089Z,8.07
2019-01-14T22:55:13.710Z,21.53
2019-01-14T22:57:42.321Z,12.30
2019-01-14T23:00:40.102Z,15.13
2019-01-14T23:03:08.796Z,18.47
2019-01-14T23:05:37.344Z,9.50
2019-01-14T23:08:06.026Z,11.47
2019-01-14T23:10:34.572Z,11.20
2019-01-14T23:13:03.181Z,10.00
2019-01-14T23:15:31.734Z,10.97
2019-01-14T23:18:00.343Z,11.23
2019-01-14T23:20:28.897Z,12.40
2019-01-14T23:22:57.489Z,12.20
2019-01-14T23:25:26.063Z,14.97
2019-01-14T23:27:54.684Z,14.07
2019-01-14T23:30:23.247Z,14.87
2019-01-14T23:32:51.884Z,17.40
2019-01-14T23:35:20.524Z,16.90
2019-01-14T23:37:49.148Z,14.30
2019-01-14T23:40:17.724Z,7.73
2019-01-14T23:42:46.321Z,12.30
2019-01-14T23:45:14.965Z,7.37
2019-01-14T23:47:43.644Z,8.43
2019-01-14T23:50:12.389Z,10.70
2019-01-14T23:52:41.053Z,15.97
2019-01-14T23:55:09.753Z,13.47
2019-01-14T23:57:38.361Z,12.73
